createdAt,value
2018-01-16T00:02:21.760Z,11.55
2018-01-16T00:04:56.087Z,10.73
2018-01-16T00:07:30.616Z,11.50
2018-01-16T00:10:05.155Z,9.65
2018-01-16T00:12:39.661Z,8.40
2018-01-16T00:15:14.100Z,2.75
2018-01-16T00:17:48.495Z,6.15
2018-01-16T00:20:23.062Z,8.75
2018-01-16T00:22:58.252Z,11.63
2018-01-16T00:25:33.398Z,9.90
2018-01-16T00:28:08.683Z,10.05
2018-01-16T00:30:44.154Z,10.00
2018-01-16T00:33:18.582Z,7.35
2018-01-16T00:35:53.147Z,9.65
2018-01-16T00:38:27.686Z,8.82
2018-01-16T00:41:02.284Z,9.10
2018-01-16T00:43:37.810Z,5.60
2018-01-16T00:46:12.306Z,8.23
2018-01-16T00:48:46.687Z,7.15
2018-01-16T00:51:21.207Z,7.35
2018-01-16T00:53:55.704Z,8.95
2018-01-16T00:56:30.114Z,10.05
2018-01-16T00:59:05.215Z,8.40
2018-01-16T01:01:40.473Z,8.55
2018-01-16T01:04:14.976Z,7.12
2018-01-16T01:06:50.150Z,6.72
2018-01-16T01:09:24.519Z,8.23
2018-01-16T01:11:58.996Z,3.87
2018-01-16T01:14:33.541Z,8.82
2018-01-16T01:17:08.046Z,9.45
2018-01-16T01:19:42.593Z,9.15
2018-01-16T01:22:16.973Z,9.32
2018-01-16T01:24:52.433Z,9.05
2018-01-16T01:27:26.809Z,9.30
2018-01-16T01:30:01.287Z,8.95
2018-01-16T01:32:35.665Z,8.93
2018-01-16T01:35:10.930Z,8.05
2018-01-16T01:37:45.244Z,7.70
2018-01-16T01:40:19.994Z,2.78
2018-01-16T01:42:54.536Z,2.65
2018-01-16T01:45:28.901Z,3.22
2018-01-16T01:48:03.629Z,4.75
2018-01-16T01:50:38.122Z,4.35
2018-01-16T01:53:12.707Z,3.35
2018-01-16T01:55:47.157Z,4.28
2018-01-16T01:58:22.440Z,2.37
2018-01-16T02:00:56.927Z,1.75
2018-01-16T02:03:32.104Z,3.87
2018-01-16T02:06:07.433Z,1.95
2018-01-16T02:08:41.960Z,2.45
2018-01-16T02:11:16.482Z,2.42
2018-01-16T02:13:51.007Z,3.97
2018-01-16T02:16:25.428Z,4.12
2018-01-16T02:19:00.018Z,3.90
2018-01-16T02:21:34.459Z,3.92
2018-01-16T02:24:09.756Z,2.80
2018-01-16T02:26:44.296Z,3.30
2018-01-16T02:29:18.739Z,1.42
2018-01-16T02:31:53.131Z,2.80
2018-01-16T02:34:28.453Z,1.17
2018-01-16T02:37:03.002Z,2.55
2018-01-16T02:39:37.421Z,1.40
2018-01-16T02:42:11.948Z,2.65
2018-01-16T02:44:46.496Z,3.47
2018-01-16T02:47:21.011Z,3.37
2018-01-16T02:49:55.532Z,2.47
2018-01-16T02:52:30.864Z,1.15
2018-01-16T02:55:05.392Z,2.37
2018-01-16T02:57:39.747Z,1.23
2018-01-16T03:00:14.353Z,1.15
2018-01-16T03:02:48.740Z,2.17
2018-01-16T03:05:23.307Z,0.90
2018-01-16T03:07:57.787Z,1.70
2018-01-16T03:10:32.313Z,2.30
2018-01-16T03:13:06.822Z,2.33
2018-01-16T03:15:41.336Z,1.45
2018-01-16T03:18:15.866Z,1.02
2018-01-16T03:20:50.425Z,1.23
2018-01-16T03:23:24.939Z,0.70
2018-01-16T03:25:59.444Z,1.80
2018-01-16T03:28:34.026Z,1.10
2018-01-16T03:31:08.577Z,0.93
2018-01-16T03:33:42.991Z,1.10
2018-01-16T03:36:17.512Z,2.00
2018-01-16T03:38:52.086Z,1.50
2018-01-16T03:41:26.416Z,1.05
2018-01-16T03:44:01.079Z,0.80
2018-01-16T03:46:35.614Z,1.12
2018-01-16T03:49:10.851Z,1.73
2018-01-16T03:51:45.364Z,1.05
2018-01-16T03:54:19.800Z,0.75
2018-01-16T03:56:54.530Z,0.62
2018-01-16T03:59:28.942Z,0.95
2018-01-16T04:02:04.178Z,0.77
2018-01-16T04:04:38.717Z,0.50
2018-01-16T04:07:13.500Z,0.55
2018-01-16T04:09:47.884Z,1.85
2018-01-16T04:12:22.380Z,0.77
2018-01-16T04:14:56.875Z,0.50
2018-01-16T04:17:31.414Z,0.40
2018-01-16T04:20:05.868Z,1.20
2018-01-16T04:22:40.385Z,0.75
2018-01-16T04:25:14.870Z,0.60
2018-01-16T04:27:49.228Z,0.40
2018-01-16T04:30:23.639Z,0.80
2018-01-16T04:32:58.882Z,0.57
2018-01-16T04:35:33.392Z,0.60
2018-01-16T04:38:07.955Z,0.90
2018-01-16T04:40:42.458Z,0.47
2018-01-16T04:43:17.066Z,0.70
2018-01-16T04:45:51.582Z,1.20
2018-01-16T04:48:26.070Z,0.75
2018-01-16T04:51:00.607Z,0.43
2018-01-16T04:53:35.151Z,1.08
2018-01-16T04:56:10.394Z,2.00
2018-01-16T04:58:44.803Z,0.70
2018-01-16T05:01:19.273Z,1.10
2018-01-16T05:03:54.153Z,1.33
2018-01-16T05:06:28.644Z,0.70
2018-01-16T05:09:03.034Z,1.12
2018-01-16T05:11:37.601Z,1.05
2018-01-16T05:14:12.181Z,0.98
2018-01-16T05:16:46.796Z,1.30
2018-01-16T05:19:21.291Z,0.62
2018-01-16T05:21:55.646Z,0.98
2018-01-16T05:24:30.097Z,1.10
2018-01-16T05:27:04.651Z,1.58
2018-01-16T05:29:39.051Z,0.80
2018-01-16T05:32:13.614Z,1.70
2018-01-16T05:34:48.891Z,1.50
2018-01-16T05:37:23.636Z,1.62
2018-01-16T05:39:58.185Z,0.77
2018-01-16T05:42:32.816Z,2.55
2018-01-16T05:45:08.018Z,1.83
2018-01-16T05:47:42.713Z,1.98
2018-01-16T05:50:17.181Z,2.22
2018-01-16T05:52:51.838Z,3.22
2018-01-16T05:55:27.079Z,1.90
2018-01-16T05:58:01.463Z,3.58
2018-01-16T06:00:35.835Z,2.72
2018-01-16T06:03:10.311Z,3.80
2018-01-16T06:05:45.417Z,3.85
2018-01-16T06:08:19.964Z,3.80
2018-01-16T06:10:54.415Z,3.70
2018-01-16T06:13:29.034Z,4.43
2018-01-16T06:16:03.514Z,5.25
2018-01-16T06:18:39.317Z,5.15
2018-01-16T06:21:13.707Z,4.03
2018-01-16T06:23:48.186Z,3.92
2018-01-16T06:26:22.644Z,3.10
2018-01-16T06:28:57.176Z,3.53
2018-01-16T06:31:31.736Z,2.25
2018-01-16T06:34:06.201Z,3.42
2018-01-16T06:36:40.606Z,3.08
2018-01-16T06:39:15.113Z,3.78
2018-01-16T06:41:49.666Z,5.82
2018-01-16T06:44:24.125Z,3.33
2018-01-16T06:46:58.597Z,4.30
2018-01-16T06:49:33.000Z,3.60
2018-01-16T06:52:08.389Z,2.10
2018-01-16T06:54:42.854Z,3.60
2018-01-16T06:57:17.347Z,5.22
2018-01-16T06:59:52.927Z,2.70
2018-01-16T07:02:27.405Z,2.72
2018-01-16T07:05:02.070Z,2.75
2018-01-16T07:07:36.690Z,3.65
2018-01-16T07:10:11.853Z,3.28
2018-01-16T07:12:47.106Z,4.62
2018-01-16T07:15:21.586Z,2.40
2018-01-16T07:17:56.007Z,4.57
2018-01-16T07:20:30.420Z,3.35
2018-01-16T07:23:05.675Z,1.80
2018-01-16T07:25:40.066Z,3.08
2018-01-16T07:28:15.344Z,3.90
2018-01-16T07:30:49.845Z,5.03
2018-01-16T07:33:24.299Z,5.93
2018-01-16T07:35:58.799Z,2.47
2018-01-16T07:38:33.325Z,3.50
2018-01-16T07:41:07.799Z,5.00
2018-01-16T07:43:43.003Z,5.32
2018-01-16T07:46:17.468Z,5.12
2018-01-16T07:48:51.949Z,5.70
2018-01-16T07:51:26.444Z,3.30
2018-01-16T07:54:01.679Z,2.85
2018-01-16T07:56:36.167Z,4.18
2018-01-16T07:59:10.627Z,4.28
2018-01-16T08:01:45.096Z,4.30
2018-01-16T08:04:19.429Z,4.60
2018-01-16T08:06:53.891Z,2.72
2018-01-16T08:09:28.336Z,3.15
2018-01-16T08:12:02.875Z,1.90
2018-01-16T08:14:37.339Z,1.83
2018-01-16T08:17:11.921Z,3.80
2018-01-16T08:19:47.236Z,2.28
2018-01-16T08:22:21.755Z,1.60
2018-01-16T08:24:56.158Z,2.75
2018-01-16T08:27:31.524Z,5.32
2018-01-16T08:30:05.975Z,2.97
2018-01-16T08:32:40.441Z,2.87
2018-01-16T08:35:14.995Z,2.75
2018-01-16T08:37:49.391Z,2.15
2018-01-16T08:40:24.868Z,2.90
2018-01-16T08:42:59.224Z,1.10
2018-01-16T08:45:33.651Z,4.10
2018-01-16T08:48:08.189Z,1.80
2018-01-16T08:50:42.664Z,2.00
2018-01-16T08:53:17.045Z,2.50
2018-01-16T08:55:51.732Z,2.65
2018-01-16T08:58:26.299Z,2.05
2018-01-16T09:01:00.765Z,1.45
2018-01-16T09:03:35.394Z,3.15
2018-01-16T09:06:10.623Z,2.05
2018-01-16T09:08:45.070Z,3.75
2018-01-16T09:11:19.416Z,2.62
2018-01-16T09:13:53.908Z,4.28
2018-01-16T09:16:28.435Z,2.85
2018-01-16T09:19:02.956Z,1.52
2018-01-16T09:21:37.522Z,2.50
2018-01-16T09:24:12.058Z,1.20
2018-01-16T09:26:46.680Z,1.92
2018-01-16T09:29:21.168Z,1.80
2018-01-16T09:31:55.530Z,2.47
2018-01-16T09:34:30.044Z,3.17
2018-01-16T09:37:04.537Z,1.90
2018-01-16T09:39:39.033Z,1.73
2018-01-16T09:42:13.516Z,2.03
2018-01-16T09:44:48.177Z,2.55
2018-01-16T09:47:22.616Z,2.47
2018-01-16T09:49:57.885Z,1.85
2018-01-16T09:52:32.437Z,3.55
2018-01-16T09:55:06.931Z,3.62
2018-01-16T09:57:41.538Z,1.05
2018-01-16T10:00:15.919Z,3.37
2018-01-16T10:02:50.357Z,3.05
2018-01-16T10:05:24.869Z,2.45
2018-01-16T10:07:59.373Z,4.32
2018-01-16T10:10:34.535Z,2.90
2018-01-16T10:13:09.934Z,3.00
2018-01-16T10:15:44.540Z,3.20
2018-01-16T10:18:18.992Z,1.70
2018-01-16T10:20:53.400Z,3.10
2018-01-16T10:23:27.950Z,2.87
2018-01-16T10:26:02.348Z,1.52
2018-01-16T10:28:36.751Z,2.50
2018-01-16T10:31:11.392Z,3.35
2018-01-16T10:33:46.639Z,4.07
2018-01-16T10:36:21.079Z,4.85
2018-01-16T10:38:55.592Z,4.28
2018-01-16T10:41:30.086Z,1.60
2018-01-16T10:44:04.462Z,2.85
2018-01-16T10:46:38.880Z,4.30
2018-01-16T10:49:13.502Z,4.07
2018-01-16T10:51:47.997Z,3.90
2018-01-16T10:54:22.540Z,3.10
2018-01-16T10:56:57.972Z,1.50
2018-01-16T10:59:32.378Z,4.18
2018-01-16T11:02:06.892Z,2.42
2018-01-16T11:04:42.253Z,2.00
2018-01-16T11:07:16.828Z,3.00
2018-01-16T11:09:51.267Z,2.60
2018-01-16T11:12:25.849Z,3.65
2018-01-16T11:15:00.216Z,3.45
2018-01-16T11:17:34.761Z,4.28
2018-01-16T11:20:09.287Z,3.60
2018-01-16T11:22:43.746Z,2.37
2018-01-16T11:25:18.267Z,3.85
2018-01-16T11:27:52.632Z,2.22
2018-01-16T11:30:27.879Z,3.05
2018-01-16T11:33:02.257Z,4.65
2018-01-16T11:35:36.597Z,2.40
2018-01-16T11:38:11.147Z,1.33
2018-01-16T11:40:45.479Z,2.72
2018-01-16T11:43:19.975Z,1.73
2018-01-16T11:45:54.523Z,2.08
2018-01-16T11:48:29.081Z,3.17
2018-01-16T11:51:03.695Z,2.40
2018-01-16T11:53:38.141Z,1.50
2018-01-16T11:56:12.617Z,1.50
2018-01-16T11:58:47.054Z,1.55
2018-01-16T12:01:22.341Z,1.92
2018-01-16T12:03:56.803Z,2.37
2018-01-16T12:06:31.463Z,3.03
2018-01-16T12:09:05.861Z,3.42
2018-01-16T12:11:40.416Z,4.68
2018-01-16T12:14:14.947Z,2.62
2018-01-16T12:16:50.196Z,1.27
2018-01-16T12:19:24.701Z,2.95
2018-01-16T12:21:59.209Z,1.98
2018-01-16T12:24:33.715Z,2.85
2018-01-16T12:27:08.284Z,1.00
2018-01-16T12:29:42.601Z,3.42
2018-01-16T12:32:17.810Z,1.73
2018-01-16T12:34:53.072Z,1.05
2018-01-16T12:37:27.576Z,2.30
2018-01-16T12:40:02.811Z,1.50
2018-01-16T12:42:37.196Z,1.77
2018-01-16T12:45:11.567Z,2.58
2018-01-16T12:47:46.007Z,3.00
2018-01-16T12:50:20.550Z,3.00
2018-01-16T12:52:55.150Z,3.30
2018-01-16T12:55:29.625Z,3.37
2018-01-16T12:58:03.985Z,1.80
2018-01-16T13:00:38.549Z,4.15
2018-01-16T13:03:13.825Z,1.65
2018-01-16T13:05:48.329Z,2.30
2018-01-16T13:08:22.884Z,3.70
2018-01-16T13:10:57.313Z,2.67
2018-01-16T13:13:31.715Z,3.03
2018-01-16T13:16:06.826Z,2.60
2018-01-16T13:18:41.426Z,2.40
2018-01-16T13:21:15.870Z,1.12
2018-01-16T13:23:50.329Z,3.17
2018-01-16T13:26:24.853Z,3.92
2018-01-16T13:28:59.211Z,1.75
2018-01-16T13:31:33.515Z,3.92
2018-01-16T13:34:08.811Z,2.78
2018-01-16T13:36:43.331Z,2.05
2018-01-16T13:39:17.873Z,1.90
2018-01-16T13:41:52.457Z,2.67
2018-01-16T13:44:26.951Z,1.15
2018-01-16T13:47:02.242Z,3.58
2018-01-16T13:49:36.758Z,2.78
2018-01-16T13:52:11.496Z,2.45
2018-01-16T13:54:45.893Z,2.95
2018-01-16T13:57:20.313Z,4.40
2018-01-16T13:59:54.846Z,1.98
2018-01-16T14:02:29.285Z,2.75
2018-01-16T14:05:03.655Z,1.92
2018-01-16T14:07:38.117Z,1.02
2018-01-16T14:10:13.450Z,0.98
2018-01-16T14:12:47.921Z,1.75
2018-01-16T14:15:22.414Z,2.50
2018-01-16T14:17:56.899Z,2.30
2018-01-16T14:20:31.302Z,3.53
2018-01-16T14:23:06.064Z,1.50
2018-01-16T14:25:41.146Z,3.28
2018-01-16T14:28:15.497Z,4.82
2018-01-16T14:30:50.018Z,3.30
2018-01-16T14:33:24.640Z,2.20
2018-01-16T14:35:59.146Z,4.30
2018-01-16T14:38:33.692Z,1.85
2018-01-16T14:41:08.359Z,1.20
2018-01-16T14:43:42.745Z,2.75
2018-01-16T14:46:17.284Z,3.53
2018-01-16T14:48:51.790Z,2.90
2018-01-16T14:51:26.271Z,3.28
2018-01-16T14:54:00.610Z,2.62
2018-01-16T14:56:35.047Z,3.10
2018-01-16T14:59:09.751Z,2.97
2018-01-16T15:01:44.213Z,2.17
2018-01-16T15:04:18.660Z,2.45
2018-01-16T15:06:53.967Z,2.55
2018-01-16T15:09:28.350Z,1.15
2018-01-16T15:12:02.778Z,2.97
2018-01-16T15:14:38.034Z,1.17
2018-01-16T15:17:12.540Z,0.93
2018-01-16T15:19:46.964Z,1.15
2018-01-16T15:22:22.070Z,0.70
2018-01-16T15:24:57.279Z,1.95
2018-01-16T15:27:32.584Z,1.52
2018-01-16T15:30:06.954Z,1.05
2018-01-16T15:32:41.438Z,1.60
2018-01-16T15:35:15.960Z,1.50
2018-01-16T15:37:50.368Z,0.95
2018-01-16T15:40:24.771Z,1.33
2018-01-16T15:42:59.354Z,1.62
2018-01-16T15:45:33.897Z,1.20
2018-01-16T15:48:08.452Z,1.92
2018-01-16T15:50:43.009Z,1.52
2018-01-16T15:53:17.550Z,0.60
2018-01-16T15:55:52.800Z,1.15
2018-01-16T15:58:27.302Z,1.45
2018-01-16T16:01:01.892Z,0.75
2018-01-16T16:03:36.990Z,0.50
2018-01-16T16:06:14.011Z,1.42
2018-01-16T16:08:49.899Z,0.65
2018-01-16T16:11:24.339Z,1.55
2018-01-16T16:13:58.693Z,1.30
2018-01-16T16:16:33.121Z,2.35
2018-01-16T16:19:07.968Z,2.22
2018-01-16T16:21:42.402Z,1.85
2018-01-16T16:24:16.891Z,1.80
2018-01-16T16:26:51.987Z,1.33
2018-01-16T16:29:26.655Z,1.20
2018-01-16T16:32:01.151Z,2.60
2018-01-16T16:34:35.660Z,3.25
2018-01-16T16:37:10.780Z,3.37
2018-01-16T16:39:45.367Z,3.00
2018-01-16T16:42:19.818Z,2.10
2018-01-16T16:44:54.199Z,3.40
2018-01-16T16:47:28.881Z,4.62
2018-01-16T16:50:04.949Z,5.37
2018-01-16T16:52:39.571Z,4.12
2018-01-16T16:55:13.920Z,2.28
2018-01-16T16:57:48.425Z,2.90
2018-01-16T17:00:23.662Z,0.88
2018-01-16T17:02:58.050Z,2.60
2018-01-16T17:05:32.403Z,4.03
2018-01-16T17:08:06.863Z,1.55
2018-01-16T17:10:41.443Z,1.95
2018-01-16T17:13:16.005Z,1.25
2018-01-16T17:15:51.635Z,2.35
2018-01-16T17:18:26.752Z,1.50
2018-01-16T17:21:01.236Z,3.12
2018-01-16T17:23:35.704Z,1.73
2018-01-16T17:26:10.054Z,1.37
2018-01-16T17:28:44.771Z,2.60
2018-01-16T17:31:19.277Z,2.97
2018-01-16T17:33:53.764Z,0.90
2018-01-16T17:36:28.245Z,1.55
2018-01-16T17:39:02.594Z,1.75
2018-01-16T17:41:37.105Z,2.95
2018-01-16T17:44:11.608Z,3.53
2018-01-16T17:46:46.748Z,3.22
2018-01-16T17:49:21.113Z,5.87
2018-01-16T17:51:55.662Z,4.22
2018-01-16T17:54:30.220Z,3.47
2018-01-16T17:57:04.763Z,3.25
2018-01-16T17:59:39.125Z,7.10
2018-01-16T18:02:13.465Z,5.53
2018-01-16T18:04:48.637Z,7.32
2018-01-16T18:07:23.037Z,5.78
2018-01-16T18:09:58.346Z,4.72
2018-01-16T18:12:32.870Z,3.85
2018-01-16T18:15:07.569Z,2.95
2018-01-16T18:17:42.101Z,2.00
2018-01-16T18:20:16.495Z,2.55
2018-01-16T18:22:50.892Z,2.10
2018-01-16T18:25:25.207Z,2.10
2018-01-16T18:27:59.535Z,2.12
2018-01-16T18:30:34.706Z,3.12
2018-01-16T18:33:09.318Z,2.35
2018-01-16T18:35:43.855Z,2.72
2018-01-16T18:38:18.301Z,2.97
2018-01-16T18:40:52.980Z,3.70
2018-01-16T18:43:28.901Z,3.67
2018-01-16T18:46:03.390Z,2.70
2018-01-16T18:48:38.264Z,2.90
2018-01-16T18:51:12.785Z,1.73
2018-01-16T18:53:47.241Z,4.03
2018-01-16T18:56:21.848Z,4.07
2018-01-16T18:58:56.381Z,3.20
2018-01-16T19:01:30.884Z,1.15
2018-01-16T19:04:05.235Z,1.55
2018-01-16T19:06:39.755Z,1.35
2018-01-16T19:09:14.339Z,5.37
2018-01-16T19:11:48.844Z,5.07
2018-01-16T19:14:23.372Z,4.97
2018-01-16T19:16:57.958Z,3.60
2018-01-16T19:19:32.353Z,3.30
2018-01-16T19:22:06.981Z,3.53
2018-01-16T19:24:41.593Z,1.62
2018-01-16T19:27:16.114Z,1.73
2018-01-16T19:29:50.563Z,4.10
2018-01-16T19:32:25.074Z,2.62
2018-01-16T19:34:59.419Z,1.02
2018-01-16T19:37:33.921Z,3.72
2018-01-16T19:40:08.295Z,3.78
2018-01-16T19:42:43.537Z,3.22
2018-01-16T19:45:18.899Z,5.78
2018-01-16T19:47:53.513Z,3.10
2018-01-16T19:50:27.952Z,3.00
2018-01-16T19:53:02.556Z,3.00
2018-01-16T19:55:36.972Z,3.58
2018-01-16T19:58:11.337Z,2.47
2018-01-16T20:00:45.832Z,3.95
2018-01-16T20:03:20.431Z,4.60
2018-01-16T20:05:55.171Z,2.37
2018-01-16T20:08:29.535Z,3.35
2018-01-16T20:11:03.886Z,4.10
2018-01-16T20:13:38.348Z,3.85
2018-01-16T20:16:12.829Z,2.87
2018-01-16T20:18:47.352Z,3.28
2018-01-16T20:21:21.745Z,4.70
2018-01-16T20:23:56.256Z,3.92
2018-01-16T20:26:30.827Z,2.00
2018-01-16T20:29:05.246Z,3.28
2018-01-16T20:31:39.818Z,2.10
2018-01-16T20:34:14.536Z,2.40
2018-01-16T20:36:49.858Z,4.15
2018-01-16T20:39:24.292Z,4.37
2018-01-16T20:41:58.848Z,1.73
2018-01-16T20:44:33.337Z,2.87
2018-01-16T20:47:08.668Z,3.20
2018-01-16T20:49:43.104Z,2.35
2018-01-16T20:52:17.695Z,1.80
2018-01-16T20:54:52.082Z,2.62
2018-01-16T20:57:26.631Z,3.00
2018-01-16T21:00:01.136Z,1.42
2018-01-16T21:02:35.606Z,2.03
2018-01-16T21:05:10.817Z,1.00
2018-01-16T21:07:45.324Z,2.50
2018-01-16T21:10:19.838Z,2.97
2018-01-16T21:12:54.893Z,1.23
2018-01-16T21:15:29.449Z,1.05
2018-01-16T21:18:03.865Z,1.48
2018-01-16T21:20:38.279Z,1.67
2018-01-16T21:23:13.539Z,1.60
2018-01-16T21:25:48.004Z,1.77
2018-01-16T21:28:22.418Z,2.97
2018-01-16T21:30:56.957Z,2.62
2018-01-16T21:33:31.294Z,4.57
2018-01-16T21:36:06.623Z,1.75
2018-01-16T21:38:41.029Z,4.82
2018-01-16T21:41:15.410Z,4.15
2018-01-16T21:43:50.638Z,2.70
2018-01-16T21:46:25.050Z,4.57
2018-01-16T21:49:00.145Z,3.60
2018-01-16T21:51:34.656Z,3.08
2018-01-16T21:54:09.339Z,3.40
2018-01-16T21:56:43.864Z,4.87
2018-01-16T21:59:18.327Z,2.60
2018-01-16T22:01:53.452Z,5.25
2018-01-16T22:04:27.842Z,4.65
2018-01-16T22:07:02.379Z,2.97
2018-01-16T22:09:37.528Z,4.18
2018-01-16T22:12:12.054Z,2.97
2018-01-16T22:14:47.193Z,5.40
2018-01-16T22:17:21.764Z,2.35
2018-01-16T22:19:56.822Z,4.70
2018-01-16T22:22:31.222Z,3.67
2018-01-16T22:25:05.688Z,4.93
2018-01-16T22:27:40.261Z,7.22
2018-01-16T22:30:15.514Z,3.65
2018-01-16T22:32:49.928Z,5.80
2018-01-16T22:35:24.482Z,5.82
2018-01-16T22:37:59.691Z,4.25
2018-01-16T22:40:34.716Z,4.87
2018-01-16T22:43:09.261Z,4.55
2018-01-16T22:45:43.848Z,2.17
2018-01-16T22:48:18.350Z,4.35
2018-01-16T22:50:52.860Z,4.35
2018-01-16T22:53:27.250Z,4.68
2018-01-16T22:56:02.359Z,4.82
2018-01-16T22:58:37.636Z,4.12
2018-01-16T23:01:12.243Z,1.65
2018-01-16T23:03:46.602Z,6.80
2018-01-16T23:06:20.958Z,1.58
2018-01-16T23:08:55.339Z,3.87
2018-01-16T23:11:29.720Z,4.68
2018-01-16T23:14:04.256Z,2.50
2018-01-16T23:16:38.795Z,3.87
2018-01-16T23:19:14.201Z,5.78
2018-01-16T23:21:48.674Z,3.70
2018-01-16T23:24:23.042Z,1.65
2018-01-16T23:26:57.456Z,3.85
2018-01-16T23:29:31.790Z,2.95
2018-01-16T23:32:06.150Z,4.40
2018-01-16T23:34:40.749Z,2.53
2018-01-16T23:37:15.455Z,1.30
2018-01-16T23:39:49.825Z,4.50
2018-01-16T23:42:24.325Z,3.00
2018-01-16T23:44:58.802Z,2.33
2018-01-16T23:47:33.969Z,1.85
2018-01-16T23:50:08.510Z,3.25
2018-01-16T23:52:43.679Z,2.30
2018-01-16T23:55:18.937Z,1.95
2018-01-16T23:57:53.325Z,1.95
